Avalon — PBSF — position and weather

sailwx.info

Track history (hours):
 
Tides and Currents Weather Stations Pressure Air Temp Water Temp Dewpoint Dewpoint Depression Visibility Wind Speed Wind Dir Waves Ship Positions

Avalon

Last reported at 2017-Mar-27 04:33 UTC. Time now 2017-Mar-27 06:41 UTC.
Position N 56°55' E 010°50'.

Length 89 m; draft 5.3 m.

Type: Cargo ship. MMSI: 246578000.

Date/timePositionNaut miles runAvg speedWind from/ knotsBaromVisibWave heightAir tempDewpointWater temp
2017-Mar-27 04:33N 56°55' E 010°50'10 9.9
2017-Mar-27 03:31N 57°06' E 010°47'1010.3
2017-Mar-27 02:30N 57°16' E 010°43'1010.3
2017-Mar-27 01:33N 57°26' E 010°44'9 9.3
2017-Mar-27 00:33N 57°35' E 010°44'10 9.8
2017-Mar-26 23:33N 57°45' E 010°45'1310.1
2017-Mar-26 22:17N 57°45' E 010°21'811.1
2017-Mar-26 21:33N 57°43' E 010°07'1110.8
2017-Mar-26 20:31N 57°40' E 009°46'1210.5
2017-Mar-26 19:24N 57°37' E 009°25'1310.4
2017-Mar-26 18:08N 57°30' E 009°04'141 9.5
2017-Mar-26 03:15N 55°36' E 006°33'8 9.8
2017-Mar-26 02:23N 55°28' E 006°26'10110.2
2017-Mar-25 16:28N 53°59' E 005°05'1110.4
2017-Mar-25 15:24N 53°49' E 004°58'2110.2
2017-Mar-25 13:22N 53°30' E 004°44'8 9.3
2017-Mar-25 12:33N 53°23' E 004°39'9 8.8
2017-Mar-25 11:32N 53°14' E 004°33'9 8.6
2017-Mar-25 10:32N 53°07' E 004°27'8 8.6
2017-Mar-25 09:33N 52°59' E 004°21'9 8.6
2017-Mar-25 08:33N 52°52' E 004°14'9 8.6
2017-Mar-25 07:33N 52°45' E 004°06'9 9.0
2017-Mar-25 06:32N 52°38' E 003°56'9 9.0
2017-Mar-25 05:33N 52°31' E 003°46'10 9.2
2017-Mar-25 04:25N 52°23' E 003°35'8 9.5
2017-Mar-25 03:33N 52°15' E 003°30'1010.0
2017-Mar-25 02:33N 52°06' E 003°26'1010.4
2017-Mar-25 01:33N 51°56' E 003°24'1110.6
2017-Mar-25 00:32N 51°46' E 003°16'1010.0
2017-Mar-24 23:33N 51°37' E 003°22'1010.3
2017-Mar-24 22:33N 51°28' E 003°31'8 7.6
2017-Mar-24 21:32N 51°25' E 003°42'7 6.7
2017-Mar-24 20:32N 51°20' E 003°49'0 0.3
2017-Mar-24 19:33N 51°20' E 003°49'3 3.5
2017-Mar-24 18:33N 51°16' E 003°51'0 0.1
2017-Mar-24 17:05N 51°16' E 003°51'0 0.0
2017-Mar-24 16:32N 51°16' E 003°51'0 0.0
2017-Mar-24 15:23N 51°16' E 003°51'0 0.0
2017-Mar-24 14:32N 51°16' E 003°51'0 0.0
2017-Mar-24 13:26N 51°16' E 003°51'0 0.0
2017-Mar-24 12:23N 51°16' E 003°51'0 0.0
2017-Mar-24 11:26N 51°16' E 003°51'0 0.0
2017-Mar-24 10:29N 51°16' E 003°51'0 0.0
2017-Mar-24 09:32N 51°16' E 003°51'0 0.0
2017-Mar-24 08:32N 51°16' E 003°51'0 0.0
2017-Mar-24 07:26N 51°16' E 003°51'0 0.0
2017-Mar-24 06:20N 51°16' E 003°51'0 0.0
2017-Mar-24 05:29N 51°16' E 003°51'0 0.0
2017-Mar-24 04:32N 51°16' E 003°51'0 0.0
2017-Mar-24 03:33N 51°16' E 003°51'3 2.9
2017-Mar-24 02:33N 51°19' E 003°49'0 0.0
2017-Mar-24 01:32N 51°19' E 003°49'0 0.0
2017-Mar-24 00:26N 51°19' E 003°49'0 0.0
2017-Mar-23 23:26N 51°19' E 003°49'0 0.0
2017-Mar-23 22:29N 51°19' E 003°49'0 0.0
2017-Mar-23 21:32N 51°19' E 003°49'0 0.0
2017-Mar-23 20:32N 51°19' E 003°49'0 0.0
2017-Mar-23 19:32N 51°19' E 003°49'0 0.0
2017-Mar-23 18:32N 51°19' E 003°49'0 0.0
2017-Mar-23 17:29N 51°19' E 003°49'0 0.0
2017-Mar-23 16:32N 51°19' E 003°49'0 0.0
2017-Mar-23 15:32N 51°19' E 003°49'0 0.0
2017-Mar-23 14:32N 51°19' E 003°49'0 0.0
2017-Mar-23 13:29N 51°19' E 003°49'0 0.0
2017-Mar-23 12:32N 51°19' E 003°49'0 0.0
2017-Mar-23 11:32N 51°19' E 003°49'0 0.0
2017-Mar-23 10:32N 51°19' E 003°49'0 0.0
2017-Mar-23 09:23N 51°19' E 003°49'0 0.0
2017-Mar-23 08:32N 51°19' E 003°49'0 0.0
2017-Mar-23 07:32N 51°19' E 003°49'0 0.0
2017-Mar-23 06:32N 51°19' E 003°49'0 0.0
2017-Mar-23 05:29N 51°19' E 003°49'0 0.0
2017-Mar-23 04:29N 51°19' E 003°49'0 0.0
2017-Mar-23 03:29N 51°19' E 003°49'0 0.0
2017-Mar-23 02:32N 51°19' E 003°49'0 0.0
2017-Mar-23 01:29N 51°19' E 003°49'0 0.0
2017-Mar-23 00:32N 51°19' E 003°49'0 0.0
2017-Mar-22 23:32N 51°19' E 003°49'0 0.0
2017-Mar-22 22:32N 51°19' E 003°49'0 0.0
2017-Mar-22 21:32N 51°19' E 003°49'0 0.0
2017-Mar-22 20:32N 51°19' E 003°49'0 0.0
2017-Mar-22 19:32N 51°19' E 003°49'0 0.0
2017-Mar-22 18:32N 51°19' E 003°49'0 0.0
2017-Mar-22 17:32N 51°19' E 003°49'0 0.0
2017-Mar-22 16:32N 51°19' E 003°49'0 0.0
2017-Mar-22 15:26N 51°19' E 003°49'0 0.0
2017-Mar-22 14:32N 51°19' E 003°49'0 0.0
2017-Mar-22 13:32N 51°19' E 003°49'0 0.0
2017-Mar-22 12:17N 51°19' E 003°49'0 0.0
2017-Mar-22 11:32N 51°19' E 003°49'0 0.0
2017-Mar-22 10:26N 51°19' E 003°49'0 0.0
2017-Mar-22 09:29N 51°19' E 003°49'0 0.0
2017-Mar-22 08:26N 51°19' E 003°49'0 0.0
2017-Mar-22 07:32N 51°19' E 003°49'0 0.0
2017-Mar-22 06:32N 51°19' E 003°49'0 0.0
2017-Mar-22 05:32N 51°19' E 003°49'0 0.0
2017-Mar-22 04:32N 51°19' E 003°49'0 0.0
2017-Mar-22 03:32N 51°19' E 003°49'0 0.0
2017-Mar-22 02:26N 51°19' E 003°49'0 0.0
2017-Mar-22 01:32N 51°19' E 003°49'0 0.0
2017-Mar-22 00:32N 51°19' E 003°49'0 0.0
2017-Mar-21 23:26N 51°19' E 003°49'0 0.0
2017-Mar-21 22:32N 51°19' E 003°49'0 0.0
2017-Mar-21 21:32N 51°19' E 003°49'0 0.0
2017-Mar-21 20:31N 51°19' E 003°49'0 0.0
2017-Mar-21 19:32N 51°19' E 003°49'0 0.0
2017-Mar-21 18:31N 51°19' E 003°49'0 0.0
2017-Mar-21 17:32N 51°19' E 003°49'1 0.8
2017-Mar-21 16:30N 51°20' E 003°49'6 6.0
2017-Mar-21 15:33N 51°24' E 003°43'3 0.1
2017-Mar-20 13:32N 51°27' E 003°42'5 4.6
2017-Mar-20 12:33N 51°25' E 003°36'0 0.3
2017-Mar-20 11:34N 51°25' E 003°36'4 3.7
2017-Mar-20 10:33N 51°27' E 003°31'8 8.0
2017-Mar-20 09:33N 51°34' E 003°24'15 7.6
2017-Mar-20 07:32N 51°48' E 003°15'30 7.1
2017-Mar-20 03:23N 52°17' E 003°25'58 7.9
2017-Mar-19 20:07N 53°06' E 004°15'4 6.5
2017-Mar-19 19:33N 53°09' E 004°20'7 6.9
2017-Mar-19 18:32N 53°14' E 004°26'8 8.3
2017-Mar-19 17:32N 53°22' E 004°31'9 8.6
2017-Mar-19 16:33N 53°30' E 004°36'10 8.5
2017-Mar-19 15:20N 53°40' E 004°42'303 8.2
2017-Mar-18 02:32N 57°43' E 010°03'9 8.6
2017-Mar-18 01:32N 57°46' E 010°18'8 8.2
2017-Mar-18 00:34N 57°48' E 010°32'8 7.6
2017-Mar-17 23:33N 57°48' E 010°47'9 8.8
2017-Mar-17 22:31N 57°42' E 010°59'9 9.1
2017-Mar-17 21:34N 57°36' E 011°11'9 8.8
2017-Mar-17 20:33N 57°30' E 011°23'8 7.6
2017-Mar-17 19:33N 57°24' E 011°33'8 7.7
2017-Mar-17 18:32N 57°19' E 011°44'  
Track history (hours):
 
Tides and Currents Weather Stations Pressure Air Temp Water Temp Dewpoint Dewpoint Depression Visibility Wind Speed Wind Dir Waves Ship Positions

Avalon

Last reported at 2017-Mar-27 04:33 UTC. Time now 2017-Mar-27 06:41 UTC.
Position N 56°55' E 010°50'.

Length 89 m; draft 5.3 m.

Type: Cargo ship. MMSI: 246578000.

Date/timePositionNaut miles runAvg speedWind from/ knotsBaromVisibWave heightAir tempDewpointWater temp
2017-Mar-27 04:33N 56°55' E 010°50'10 9.9
2017-Mar-27 03:31N 57°06' E 010°47'1010.3
2017-Mar-27 02:30N 57°16' E 010°43'1010.3
2017-Mar-27 01:33N 57°26' E 010°44'9 9.3
2017-Mar-27 00:33N 57°35' E 010°44'10 9.8
2017-Mar-26 23:33N 57°45' E 010°45'1310.1
2017-Mar-26 22:17N 57°45' E 010°21'811.1
2017-Mar-26 21:33N 57°43' E 010°07'1110.8
2017-Mar-26 20:31N 57°40' E 009°46'1210.5
2017-Mar-26 19:24N 57°37' E 009°25'1310.4
2017-Mar-26 18:08N 57°30' E 009°04'141 9.5
2017-Mar-26 03:15N 55°36' E 006°33'8 9.8
2017-Mar-26 02:23N 55°28' E 006°26'10110.2
2017-Mar-25 16:28N 53°59' E 005°05'1110.4
2017-Mar-25 15:24N 53°49' E 004°58'2110.2
2017-Mar-25 13:22N 53°30' E 004°44'8 9.3
2017-Mar-25 12:33N 53°23' E 004°39'9 8.8
2017-Mar-25 11:32N 53°14' E 004°33'9 8.6
2017-Mar-25 10:32N 53°07' E 004°27'8 8.6
2017-Mar-25 09:33N 52°59' E 004°21'9 8.6
2017-Mar-25 08:33N 52°52' E 004°14'9 8.6
2017-Mar-25 07:33N 52°45' E 004°06'9 9.0
2017-Mar-25 06:32N 52°38' E 003°56'9 9.0
2017-Mar-25 05:33N 52°31' E 003°46'10 9.2
2017-Mar-25 04:25N 52°23' E 003°35'8 9.5
2017-Mar-25 03:33N 52°15' E 003°30'1010.0
2017-Mar-25 02:33N 52°06' E 003°26'1010.4
2017-Mar-25 01:33N 51°56' E 003°24'1110.6
2017-Mar-25 00:32N 51°46' E 003°16'1010.0
2017-Mar-24 23:33N 51°37' E 003°22'1010.3
2017-Mar-24 22:33N 51°28' E 003°31'8 7.6
2017-Mar-24 21:32N 51°25' E 003°42'7 6.7
2017-Mar-24 20:32N 51°20' E 003°49'0 0.3
2017-Mar-24 19:33N 51°20' E 003°49'3 3.5
2017-Mar-24 18:33N 51°16' E 003°51'0 0.1
2017-Mar-24 17:05N 51°16' E 003°51'0 0.0
2017-Mar-24 16:32N 51°16' E 003°51'0 0.0
2017-Mar-24 15:23N 51°16' E 003°51'0 0.0
2017-Mar-24 14:32N 51°16' E 003°51'0 0.0
2017-Mar-24 13:26N 51°16' E 003°51'0 0.0
2017-Mar-24 12:23N 51°16' E 003°51'0 0.0
2017-Mar-24 11:26N 51°16' E 003°51'0 0.0
2017-Mar-24 10:29N 51°16' E 003°51'0 0.0
2017-Mar-24 09:32N 51°16' E 003°51'0 0.0
2017-Mar-24 08:32N 51°16' E 003°51'0 0.0
2017-Mar-24 07:26N 51°16' E 003°51'0 0.0
2017-Mar-24 06:20N 51°16' E 003°51'0 0.0
2017-Mar-24 05:29N 51°16' E 003°51'0 0.0
2017-Mar-24 04:32N 51°16' E 003°51'0 0.0
2017-Mar-24 03:33N 51°16' E 003°51'3 2.9
2017-Mar-24 02:33N 51°19' E 003°49'0 0.0
2017-Mar-24 01:32N 51°19' E 003°49'0 0.0
2017-Mar-24 00:26N 51°19' E 003°49'0 0.0
2017-Mar-23 23:26N 51°19' E 003°49'0 0.0
2017-Mar-23 22:29N 51°19' E 003°49'0 0.0
2017-Mar-23 21:32N 51°19' E 003°49'0 0.0
2017-Mar-23 20:32N 51°19' E 003°49'0 0.0
2017-Mar-23 19:32N 51°19' E 003°49'0 0.0
2017-Mar-23 18:32N 51°19' E 003°49'0 0.0
2017-Mar-23 17:29N 51°19' E 003°49'0 0.0
2017-Mar-23 16:32N 51°19' E 003°49'0 0.0
2017-Mar-23 15:32N 51°19' E 003°49'0 0.0
2017-Mar-23 14:32N 51°19' E 003°49'0 0.0
2017-Mar-23 13:29N 51°19' E 003°49'0 0.0
2017-Mar-23 12:32N 51°19' E 003°49'0 0.0
2017-Mar-23 11:32N 51°19' E 003°49'0 0.0
2017-Mar-23 10:32N 51°19' E 003°49'0 0.0
2017-Mar-23 09:23N 51°19' E 003°49'0 0.0
2017-Mar-23 08:32N 51°19' E 003°49'0 0.0
2017-Mar-23 07:32N 51°19' E 003°49'0 0.0
2017-Mar-23 06:32N 51°19' E 003°49'0 0.0
2017-Mar-23 05:29N 51°19' E 003°49'0 0.0
2017-Mar-23 04:29N 51°19' E 003°49'0 0.0
2017-Mar-23 03:29N 51°19' E 003°49'0 0.0
2017-Mar-23 02:32N 51°19' E 003°49'0 0.0
2017-Mar-23 01:29N 51°19' E 003°49'0 0.0
2017-Mar-23 00:32N 51°19' E 003°49'0 0.0
2017-Mar-22 23:32N 51°19' E 003°49'0 0.0
2017-Mar-22 22:32N 51°19' E 003°49'0 0.0
2017-Mar-22 21:32N 51°19' E 003°49'0 0.0
2017-Mar-22 20:32N 51°19' E 003°49'0 0.0
2017-Mar-22 19:32N 51°19' E 003°49'0 0.0
2017-Mar-22 18:32N 51°19' E 003°49'0 0.0
2017-Mar-22 17:32N 51°19' E 003°49'0 0.0
2017-Mar-22 16:32N 51°19' E 003°49'0 0.0
2017-Mar-22 15:26N 51°19' E 003°49'0 0.0
2017-Mar-22 14:32N 51°19' E 003°49'0 0.0
2017-Mar-22 13:32N 51°19' E 003°49'0 0.0
2017-Mar-22 12:17N 51°19' E 003°49'0 0.0
2017-Mar-22 11:32N 51°19' E 003°49'0 0.0
2017-Mar-22 10:26N 51°19' E 003°49'0 0.0
2017-Mar-22 09:29N 51°19' E 003°49'0 0.0
2017-Mar-22 08:26N 51°19' E 003°49'0 0.0
2017-Mar-22 07:32N 51°19' E 003°49'0 0.0
2017-Mar-22 06:32N 51°19' E 003°49'0 0.0
2017-Mar-22 05:32N 51°19' E 003°49'0 0.0
2017-Mar-22 04:32N 51°19' E 003°49'0 0.0
2017-Mar-22 03:32N 51°19' E 003°49'0 0.0
2017-Mar-22 02:26N 51°19' E 003°49'0 0.0
2017-Mar-22 01:32N 51°19' E 003°49'0 0.0
2017-Mar-22 00:32N 51°19' E 003°49'0 0.0
2017-Mar-21 23:26N 51°19' E 003°49'0 0.0
2017-Mar-21 22:32N 51°19' E 003°49'0 0.0
2017-Mar-21 21:32N 51°19' E 003°49'0 0.0
2017-Mar-21 20:31N 51°19' E 003°49'0 0.0
2017-Mar-21 19:32N 51°19' E 003°49'0 0.0
2017-Mar-21 18:31N 51°19' E 003°49'0 0.0
2017-Mar-21 17:32N 51°19' E 003°49'1 0.8
2017-Mar-21 16:30N 51°20' E 003°49'6 6.0
2017-Mar-21 15:33N 51°24' E 003°43'3 0.1
2017-Mar-20 13:32N 51°27' E 003°42'5 4.6
2017-Mar-20 12:33N 51°25' E 003°36'0 0.3
2017-Mar-20 11:34N 51°25' E 003°36'4 3.7
2017-Mar-20 10:33N 51°27' E 003°31'8 8.0
2017-Mar-20 09:33N 51°34' E 003°24'15 7.6
2017-Mar-20 07:32N 51°48' E 003°15'30 7.1
2017-Mar-20 03:23N 52°17' E 003°25'58 7.9
2017-Mar-19 20:07N 53°06' E 004°15'4 6.5
2017-Mar-19 19:33N 53°09' E 004°20'7 6.9
2017-Mar-19 18:32N 53°14' E 004°26'8 8.3
2017-Mar-19 17:32N 53°22' E 004°31'9 8.6
2017-Mar-19 16:33N 53°30' E 004°36'10 8.5
2017-Mar-19 15:20N 53°40' E 004°42'303 8.2
2017-Mar-18 02:32N 57°43' E 010°03'9 8.6
2017-Mar-18 01:32N 57°46' E 010°18'8 8.2
2017-Mar-18 00:34N 57°48' E 010°32'8 7.6
2017-Mar-17 23:33N 57°48' E 010°47'9 8.8
2017-Mar-17 22:31N 57°42' E 010°59'9 9.1
2017-Mar-17 21:34N 57°36' E 011°11'9 8.8
2017-Mar-17 20:33N 57°30' E 011°23'8 7.6
2017-Mar-17 19:33N 57°24' E 011°33'8 7.7
2017-Mar-17 18:32N 57°19' E 011°44'  

Dump ship's entire track history